createdAt,value
2023-05-09T00:02:31.048Z,101466.41
2023-05-09T00:05:34.055Z,101467.06
2023-05-09T00:08:38.107Z,101472.69
2023-05-09T00:11:41.020Z,101464.78
2023-05-09T00:14:45.633Z,101462.78
2023-05-09T00:17:48.479Z,101459.16
2023-05-09T00:20:51.372Z,101458.31
2023-05-09T00:23:54.165Z,101460.31
2023-05-09T00:26:57.017Z,101459.84
2023-05-09T00:29:59.811Z,101455.38
2023-05-09T00:33:02.735Z,101455.88
2023-05-09T00:36:05.806Z,101451.13
2023-05-09T00:39:08.703Z,101454.44
2023-05-09T00:42:11.626Z,101449.81
2023-05-09T00:45:14.558Z,101456.75
2023-05-09T00:48:18.153Z,101452.44
2023-05-09T00:51:21.785Z,101457.72
2023-05-09T00:54:24.807Z,101451.47
2023-05-09T00:57:27.689Z,101458.91
2023-05-09T01:00:30.661Z,101456.59
2023-05-09T01:03:33.536Z,101456.41
2023-05-09T01:06:52.408Z,101449.50
2023-05-09T01:10:17.863Z,101452.31
2023-05-09T01:13:46.348Z,101451.47
2023-05-09T01:16:59.069Z,101444.72
2023-05-09T01:20:13.646Z,101444.22
2023-05-09T01:23:48.658Z,101449.50
2023-05-09T01:27:14.347Z,101447.84
2023-05-09T01:30:18.548Z,101450.97
2023-05-09T01:33:24.555Z,101440.41
2023-05-09T01:36:33.106Z,101452.59
2023-05-09T01:39:40.171Z,101438.44
2023-05-09T01:42:47.935Z,101443.56
2023-05-09T01:45:52.873Z,101444.88
2023-05-09T01:48:57.481Z,101440.22
2023-05-09T01:52:04.437Z,101436.59
2023-05-09T01:55:09.635Z,101432.97
2023-05-09T01:58:13.652Z,101436.59
2023-05-09T02:01:17.813Z,101436.44
2023-05-09T02:04:22.159Z,101433.81
2023-05-09T02:07:25.738Z,101430.81
2023-05-09T02:10:31.601Z,101424.72
2023-05-09T02:13:34.434Z,101429.94
2023-05-09T02:16:39.586Z,101429.81
2023-05-09T02:19:43.472Z,101428.47
2023-05-09T02:22:47.229Z,101425.16
2023-05-09T02:25:51.115Z,101424.38
2023-05-09T02:28:56.126Z,101412.31
2023-05-09T02:32:01.387Z,101417.59
2023-05-09T02:35:06.904Z,101411.63
2023-05-09T02:38:10.451Z,101417.75
2023-05-09T02:41:14.585Z,101412.63
2023-05-09T02:44:17.432Z,101410.63
2023-05-09T02:47:20.751Z,101414.91
2023-05-09T02:50:23.725Z,101417.53
2023-05-09T02:53:26.616Z,101411.28
2023-05-09T02:56:29.440Z,101408.50
2023-05-09T02:59:32.510Z,101407.31
2023-05-09T03:02:38.874Z,101407.00
2023-05-09T03:05:45.261Z,101409.88
2023-05-09T03:08:48.059Z,101406.94
2023-05-09T03:11:51.011Z,101406.75
2023-05-09T03:14:53.873Z,101405.13
2023-05-09T03:17:56.656Z,101407.28
2023-05-09T03:20:59.557Z,101408.91
2023-05-09T03:24:04.826Z,101404.34
2023-05-09T03:27:07.676Z,101402.19
2023-05-09T03:30:11.107Z,101412.25
2023-05-09T03:33:13.842Z,101406.00
2023-05-09T03:36:17.463Z,101409.63
2023-05-09T03:39:20.449Z,101408.81
2023-05-09T03:42:26.135Z,101411.47
2023-05-09T03:45:32.759Z,101412.78
2023-05-09T03:48:36.258Z,101408.22
2023-05-09T03:51:41.896Z,101415.81
2023-05-09T03:54:49.187Z,101420.94
2023-05-09T03:57:52.440Z,101417.66
2023-05-09T04:00:56.604Z,101421.13
2023-05-09T04:04:01.659Z,101420.47
2023-05-09T04:07:08.546Z,101414.03
2023-05-09T04:10:12.306Z,101425.28
2023-05-09T04:13:15.337Z,101424.44
2023-05-09T04:16:18.726Z,101431.69
2023-05-09T04:19:22.151Z,101433.81
2023-05-09T04:22:25.084Z,101429.75
2023-05-09T04:25:29.714Z,101427.19
2023-05-09T04:28:32.670Z,101429.13
2023-05-09T04:31:36.365Z,101437.06
2023-05-09T04:34:40.948Z,101438.31
2023-05-09T04:37:52.188Z,101441.06
2023-05-09T04:40:55.452Z,101438.97
2023-05-09T04:43:58.181Z,101442.09
2023-05-09T04:47:02.079Z,101438.00
2023-05-09T04:50:05.812Z,101433.78
2023-05-09T04:53:09.410Z,101440.78
2023-05-09T04:56:12.395Z,101438.94
2023-05-09T04:59:15.411Z,101442.28
2023-05-09T05:02:18.201Z,101443.09
2023-05-09T05:05:25.334Z,101438.91
2023-05-09T05:08:29.423Z,101438.13
2023-05-09T05:11:32.594Z,101435.66
2023-05-09T05:14:35.780Z,101440.38
2023-05-09T05:17:40.405Z,101435.31
2023-05-09T05:20:44.850Z,101439.22
2023-05-09T05:23:48.072Z,101434.84
2023-05-09T05:26:51.467Z,101440.00
2023-05-09T05:29:54.934Z,101447.22
2023-05-09T05:32:57.930Z,101444.38
2023-05-09T05:36:02.270Z,101441.31
2023-05-09T05:39:05.271Z,101447.91
2023-05-09T05:42:08.279Z,101441.06
2023-05-09T05:45:12.074Z,101450.78
2023-05-09T05:48:19.434Z,101446.63
2023-05-09T05:51:23.369Z,101448.94
2023-05-09T05:54:27.141Z,101447.38
2023-05-09T05:57:32.243Z,101436.72
2023-05-09T06:00:36.585Z,101435.59
2023-05-09T06:03:42.318Z,101441.22
2023-05-09T06:06:49.320Z,101446.88
2023-05-09T06:09:53.301Z,101434.91
2023-05-09T06:12:56.290Z,101438.13
2023-05-09T06:16:14.964Z,101434.16
2023-05-09T06:19:18.646Z,101439.63
2023-05-09T06:22:21.526Z,101431.03
2023-05-09T06:25:24.422Z,101428.19
2023-05-09T06:28:27.494Z,101427.81
2023-05-09T06:31:30.406Z,101425.09
2023-05-09T06:34:33.473Z,101423.44
2023-05-09T06:37:37.605Z,101420.91
2023-05-09T06:40:40.613Z,101414.81
2023-05-09T06:43:43.697Z,101419.41
2023-05-09T06:46:46.739Z,101412.72
2023-05-09T06:49:49.690Z,101418.97
2023-05-09T06:52:55.799Z,101421.81
2023-05-09T06:55:58.726Z,101411.06
2023-05-09T06:59:04.119Z,101413.31
2023-05-09T07:02:07.648Z,101413.06
2023-05-09T07:05:10.960Z,101410.34
2023-05-09T07:08:14.045Z,101384.84
2023-05-09T07:11:17.055Z,101382.97
2023-05-09T07:14:20.815Z,101386.06
2023-05-09T07:17:55.580Z,101385.63
2023-05-09T07:20:58.554Z,101388.34
2023-05-09T07:24:01.368Z,101381.59
2023-05-09T07:27:04.311Z,101375.75
2023-05-09T07:30:09.312Z,101366.75
2023-05-09T07:33:16.729Z,101365.03
2023-05-09T07:36:20.961Z,101361.91
2023-05-09T07:39:23.866Z,101362.13
2023-05-09T07:42:57.097Z,101360.47
2023-05-09T07:46:03.449Z,101359.31
2023-05-09T07:49:06.360Z,101358.28
2023-05-09T07:53:02.448Z,101357.44
2023-05-09T07:56:07.064Z,101353.91
2023-05-09T07:59:18.749Z,101352.38
2023-05-09T08:02:21.827Z,101341.47
2023-05-09T08:06:48.740Z,101338.44
2023-05-09T08:09:51.638Z,101335.22
2023-05-09T08:14:04.582Z,101331.38
2023-05-09T08:17:36.249Z,101331.59
2023-05-09T08:20:56.004Z,101327.47
2023-05-09T08:23:58.752Z,101328.72
2023-05-09T08:27:20.536Z,101319.25
2023-05-09T08:30:23.504Z,101329.03
2023-05-09T08:33:26.473Z,101309.53
2023-05-09T08:36:29.946Z,101318.44
2023-05-09T08:39:35.150Z,101307.72
2023-05-09T08:42:38.851Z,101308.16
2023-05-09T08:45:48.016Z,101308.66
2023-05-09T08:48:52.879Z,101307.75
2023-05-09T08:51:59.355Z,101301.38
2023-05-09T08:55:06.430Z,101300.22
2023-05-09T08:58:13.692Z,101308.19
2023-05-09T09:01:17.836Z,101302.13
2023-05-09T09:04:20.874Z,101295.84
2023-05-09T09:07:30.533Z,101285.63
2023-05-09T09:10:35.554Z,101292.94
2023-05-09T09:13:44.749Z,101295.56
2023-05-09T09:16:49.149Z,101290.06
2023-05-09T09:19:59.234Z,101290.97
2023-05-09T09:23:05.704Z,101287.38
2023-05-09T09:26:09.195Z,101291.66
2023-05-09T09:29:14.979Z,101279.28
2023-05-09T09:32:19.757Z,101265.66
2023-05-09T09:35:22.762Z,101264.69
2023-05-09T09:38:26.957Z,101265.72
2023-05-09T09:42:01.733Z,101263.88
2023-05-09T09:45:16.821Z,101259.53
2023-05-09T09:48:35.023Z,101259.78
2023-05-09T09:51:37.943Z,101265.91
2023-05-09T09:54:41.021Z,101261.22
2023-05-09T09:57:48.208Z,101255.59
2023-05-09T10:01:11.565Z,101247.41
2023-05-09T10:04:16.970Z,101252.81
2023-05-09T10:07:24.004Z,101251.97
2023-05-09T10:10:32.141Z,101251.19
2023-05-09T10:13:36.639Z,101247.66
2023-05-09T10:16:44.266Z,101251.69
2023-05-09T10:19:51.653Z,101241.69
2023-05-09T10:22:58.270Z,101241.84
2023-05-09T10:26:52.905Z,101241.53
2023-05-09T10:35:05.998Z,101240.59
2023-05-09T10:38:12.726Z,101236.72
2023-05-09T10:41:17.354Z,101245.69
2023-05-09T10:44:23.429Z,101242.56
2023-05-09T10:47:28.210Z,101236.66
2023-05-09T10:50:53.420Z,101233.31
2023-05-09T10:53:57.244Z,101225.88
2023-05-09T10:57:01.061Z,101218.66
2023-05-09T11:00:05.536Z,101229.84
2023-05-09T11:03:09.103Z,101214.81
2023-05-09T11:06:51.668Z,101218.41
2023-05-09T11:10:41.949Z,101210.09
2023-05-09T11:13:46.637Z,101208.44
2023-05-09T11:25:14.397Z,101201.81
2023-05-09T11:29:19.297Z,101196.38
2023-05-09T11:32:35.041Z,101200.84
2023-05-09T11:35:38.465Z,101194.16
2023-05-09T11:39:31.486Z,101189.19
2023-05-09T11:42:34.927Z,101179.50
2023-05-09T11:45:39.313Z,101179.31
2023-05-09T11:48:42.601Z,101187.59
2023-05-09T11:51:45.567Z,101177.88
2023-05-09T11:54:49.755Z,101177.97
2023-05-09T11:57:54.762Z,101165.03
2023-05-09T12:00:58.150Z,101170.72
2023-05-09T12:04:02.552Z,101169.13
2023-05-09T12:07:05.661Z,101167.53
2023-05-09T12:10:13.861Z,101169.59
2023-05-09T12:13:16.811Z,101162.47
2023-05-09T12:16:21.280Z,101153.25
2023-05-09T12:19:25.535Z,101153.97
2023-05-09T12:22:48.738Z,101152.28
2023-05-09T12:25:56.537Z,101151.97
2023-05-09T12:29:00.979Z,101145.84
2023-05-09T12:32:06.436Z,101134.16
2023-05-09T12:35:10.918Z,101141.31
2023-05-09T12:38:29.172Z,101141.66
2023-05-09T12:42:00.342Z,101130.72
2023-05-09T12:45:08.085Z,101126.13
2023-05-09T12:48:11.958Z,101120.63
2023-05-09T12:51:33.628Z,101117.38
2023-05-09T12:54:39.378Z,101112.47
2023-05-09T12:57:43.346Z,101115.50
2023-05-09T13:00:46.593Z,101103.53
2023-05-09T13:03:53.991Z,101098.81
2023-05-09T13:07:00.177Z,101097.00
2023-05-09T13:10:03.691Z,101093.41
2023-05-09T13:13:06.609Z,101087.28
2023-05-09T13:16:11.241Z,101078.28
2023-05-09T13:19:18.420Z,101073.00
2023-05-09T13:22:23.929Z,101073.75
2023-05-09T13:25:26.854Z,101061.91
2023-05-09T13:28:29.708Z,101071.00
2023-05-09T13:31:32.753Z,101065.31
2023-05-09T13:34:35.575Z,101065.84
2023-05-09T13:37:42.501Z,101065.56
2023-05-09T13:40:45.421Z,101071.81
2023-05-09T13:43:48.489Z,101064.44
2023-05-09T13:46:51.389Z,101059.03
2023-05-09T13:49:54.246Z,101058.94
2023-05-09T13:52:57.238Z,101050.91
2023-05-09T13:56:00.003Z,101048.72
2023-05-09T13:59:02.771Z,101046.25
2023-05-09T14:02:05.821Z,101043.34
2023-05-09T14:05:09.154Z,101036.88
2023-05-09T14:08:12.548Z,101037.69
2023-05-09T14:11:26.884Z,101033.75
2023-05-09T14:14:29.664Z,101042.47
2023-05-09T14:17:38.094Z,101037.66
2023-05-09T14:20:42.438Z,101040.56
2023-05-09T14:23:45.437Z,101030.06
2023-05-09T14:27:19.333Z,101036.50
2023-05-09T14:30:25.906Z,101027.38
2023-05-09T14:33:29.311Z,101030.13
2023-05-09T14:36:33.112Z,101028.59
2023-05-09T14:39:36.585Z,101025.34
2023-05-09T14:42:39.411Z,101018.09
2023-05-09T14:45:42.186Z,101019.38
2023-05-09T14:48:45.038Z,101015.41
2023-05-09T14:51:47.892Z,101007.59
2023-05-09T14:54:50.804Z,101011.09
2023-05-09T14:57:53.816Z,101005.78
2023-05-09T15:00:56.879Z,101011.94
2023-05-09T15:03:59.709Z,101002.72
2023-05-09T15:07:02.541Z,101004.13
2023-05-09T15:10:05.983Z,100995.25
2023-05-09T15:13:08.915Z,100996.88
2023-05-09T15:16:12.377Z,100986.03
2023-05-09T15:19:15.285Z,100991.16
2023-05-09T15:22:18.111Z,100987.59
2023-05-09T15:25:22.001Z,100982.84
2023-05-09T15:28:24.909Z,100978.59
2023-05-09T15:31:32.781Z,100974.38
2023-05-09T15:34:35.816Z,100986.06
2023-05-09T15:37:38.585Z,100975.19
2023-05-09T15:40:41.524Z,100970.25
2023-05-09T15:43:44.343Z,100961.44
2023-05-09T15:46:47.259Z,100965.69
2023-05-09T15:49:50.138Z,100965.50
2023-05-09T15:52:53.008Z,100958.22
2023-05-09T15:55:56.734Z,100957.25
2023-05-09T15:58:59.682Z,100960.59
2023-05-09T16:02:02.554Z,100954.94
2023-05-09T16:05:05.617Z,100952.41
2023-05-09T16:08:08.597Z,100950.81
2023-05-09T16:11:18.903Z,100947.94
2023-05-09T16:14:21.818Z,100956.38
2023-05-09T16:17:24.699Z,100953.31
2023-05-09T16:20:27.475Z,100954.69
2023-05-09T16:23:30.288Z,100956.28
2023-05-09T16:26:33.117Z,100953.06
2023-05-09T16:29:35.978Z,100946.88
2023-05-09T16:32:38.804Z,100954.13
2023-05-09T16:35:41.642Z,100949.81
2023-05-09T16:38:44.458Z,100951.13
2023-05-09T16:41:47.341Z,100951.53
2023-05-09T16:44:50.140Z,100941.69
2023-05-09T16:51:59.523Z,100945.47
2023-05-09T16:58:28.208Z,100946.88
2023-05-09T17:01:31.296Z,100953.03
2023-05-09T17:04:36.705Z,100945.16
2023-05-09T17:07:44.503Z,100940.28
2023-05-09T17:10:47.302Z,100949.41
2023-05-09T17:13:50.293Z,100942.91
2023-05-09T17:16:55.846Z,100950.09
2023-05-09T17:19:58.817Z,100951.75
2023-05-09T17:23:01.651Z,100954.59
2023-05-09T17:26:04.920Z,100944.38
2023-05-09T17:29:07.787Z,100938.72
2023-05-09T17:32:10.598Z,100937.06
2023-05-09T17:35:14.003Z,100947.88
2023-05-09T17:38:17.581Z,100947.53
2023-05-09T17:41:20.382Z,100944.16
2023-05-09T17:44:23.190Z,100935.28
2023-05-09T17:47:26.109Z,100940.97
2023-05-09T17:50:29.326Z,100938.75
2023-05-09T17:53:32.500Z,100942.56
2023-05-09T17:56:35.422Z,100952.63
2023-05-09T17:59:40.640Z,100947.34
2023-05-09T18:02:43.875Z,100940.91
2023-05-09T18:05:46.757Z,100947.00
2023-05-09T18:08:49.513Z,100945.81
2023-05-09T18:11:52.361Z,100955.81
2023-05-09T18:14:55.688Z,100954.13
2023-05-09T18:17:59.265Z,100953.00
2023-05-09T18:21:29.981Z,100957.78
2023-05-09T18:25:00.789Z,100956.78
2023-05-09T18:28:05.792Z,100950.44
2023-05-09T18:31:16.957Z,100957.22
2023-05-09T18:34:22.640Z,100954.31
2023-05-09T18:37:27.369Z,100957.06
2023-05-09T18:40:30.176Z,100952.06
2023-05-09T18:43:33.069Z,100960.56
2023-05-09T18:46:36.055Z,100965.75
2023-05-09T18:49:39.415Z,100962.28
2023-05-09T18:52:44.425Z,100968.69
2023-05-09T18:55:48.141Z,100970.00
2023-05-09T18:58:51.287Z,100971.03
2023-05-09T19:01:54.179Z,100970.00
2023-05-09T19:04:57.064Z,100971.91
2023-05-09T19:07:59.866Z,100980.94
2023-05-09T19:11:02.789Z,100971.41
2023-05-09T19:14:05.736Z,100975.31
2023-05-09T19:17:08.860Z,100980.88
2023-05-09T19:20:12.655Z,100985.22
2023-05-09T19:23:15.773Z,100985.22
2023-05-09T19:26:19.604Z,100983.38
2023-05-09T19:29:22.414Z,100987.91
2023-05-09T19:32:25.502Z,100982.81
2023-05-09T19:35:28.264Z,100978.94
2023-05-09T19:38:31.362Z,100973.63
2023-05-09T19:41:34.853Z,100974.88
2023-05-09T19:44:38.927Z,100968.34
2023-05-09T19:47:42.779Z,100970.38
2023-05-09T19:50:46.312Z,100967.13
2023-05-09T19:53:49.387Z,100975.91
2023-05-09T19:56:52.541Z,100977.13
2023-05-09T19:59:58.010Z,100984.28
2023-05-09T20:03:03.637Z,100993.47
2023-05-09T20:06:07.835Z,100994.69
2023-05-09T20:09:10.643Z,100990.03
2023-05-09T20:12:14.445Z,100993.28
2023-05-09T20:15:17.404Z,100984.88
2023-05-09T20:18:20.224Z,100982.44
2023-05-09T20:21:23.122Z,100984.06
2023-05-09T20:24:26.246Z,100985.88
2023-05-09T20:27:30.858Z,100990.16
2023-05-09T20:30:34.009Z,100987.09
2023-05-09T20:33:36.804Z,100987.72
2023-05-09T20:36:39.931Z,100992.22
2023-05-09T20:39:42.724Z,100994.47
2023-05-09T20:42:45.508Z,100989.38
2023-05-09T20:45:48.485Z,100992.44
2023-05-09T20:48:51.839Z,100992.22
2023-05-09T20:51:55.450Z,100988.56
2023-05-09T20:54:59.435Z,100988.38
2023-05-09T20:58:02.336Z,100981.81
2023-05-09T21:01:05.196Z,100988.34
2023-05-09T21:04:08.651Z,100982.84
2023-05-09T21:07:12.100Z,100974.88
2023-05-09T21:10:15.437Z,100976.72
2023-05-09T21:13:18.420Z,100973.66
2023-05-09T21:16:21.414Z,100974.09
2023-05-09T21:19:24.901Z,100975.50
2023-05-09T21:22:27.686Z,100973.25
2023-05-09T21:25:30.591Z,100966.94
2023-05-09T21:28:33.660Z,100974.69
2023-05-09T21:31:36.567Z,100982.03
2023-05-09T21:34:39.435Z,100971.00
2023-05-09T21:37:42.260Z,100972.81
2023-05-09T21:40:45.005Z,100974.06
2023-05-09T21:43:47.719Z,100971.19
2023-05-09T21:46:50.535Z,100983.41
2023-05-09T21:49:53.691Z,100962.81
2023-05-09T21:52:57.465Z,100970.72
2023-05-09T21:56:00.244Z,100974.59
2023-05-09T21:59:03.168Z,100972.94
2023-05-09T22:02:06.038Z,100968.84
2023-05-09T22:05:10.803Z,100969.06
2023-05-09T22:08:14.204Z,100967.41
2023-05-09T22:11:17.994Z,100965.09
2023-05-09T22:14:20.728Z,100965.50
2023-05-09T22:17:24.427Z,100958.31
2023-05-09T22:20:27.369Z,100956.88
2023-05-09T22:23:30.245Z,100954.78
2023-05-09T22:26:33.381Z,100960.44
2023-05-09T22:29:36.459Z,100957.13
2023-05-09T22:32:39.914Z,100955.28
2023-05-09T22:35:42.684Z,100956.34
2023-05-09T22:38:45.349Z,100953.25
2023-05-09T22:41:48.368Z,100947.47
2023-05-09T22:44:52.864Z,100940.34
2023-05-09T22:47:55.706Z,100943.78
2023-05-09T22:50:58.558Z,100936.81
2023-05-09T22:54:01.699Z,100937.91
2023-05-09T22:57:04.516Z,100929.50
2023-05-09T23:00:07.881Z,100936.97
2023-05-09T23:03:10.796Z,100936.53
2023-05-09T23:06:13.644Z,100931.38
2023-05-09T23:09:16.504Z,100926.00
2023-05-09T23:12:19.680Z,100925.00
2023-05-09T23:15:22.461Z,100925.38
2023-05-09T23:18:25.841Z,100919.84
2023-05-09T23:21:29.233Z,100915.16
2023-05-09T23:24:31.981Z,100906.53
2023-05-09T23:27:34.709Z,100908.75
2023-05-09T23:30:37.658Z,100904.41
2023-05-09T23:33:40.409Z,100894.38
2023-05-09T23:36:43.399Z,100902.94
2023-05-09T23:39:46.212Z,100896.59
2023-05-09T23:42:48.908Z,100893.25
2023-05-09T23:45:51.945Z,100891.56
2023-05-09T23:48:54.992Z,100897.59
2023-05-09T23:51:57.848Z,100893.13
2023-05-09T23:55:00.701Z,100880.72
2023-05-09T23:58:03.602Z,100885.59
